This is the latest recevied weather packets stored in our database for station/object ED4YAF-13. If no packets are shown the sender has not sent any weather packets the latest 10 day(s).
| Time | Temp. | Humidity | Pressure | Rain* | Wind** | Luminosity | Snow |
|---|---|---|---|---|---|---|---|
| 1787953309 | 12.22° C | 47% | 1021.1 hPa | - | - | - | - |
| 1787952402 | 12.22° C | 47% | 1021 hPa | - | - | - | - |
| 1787951495 | 12.78° C | 47% | 1020.9 hPa | - | - | - | - |
| 1787950595 | 12.78° C | 46% | 1021.1 hPa | - | - | - | - |
| 1787949695 | 12.78° C | 44% | 1020.9 hPa | - | - | - | - |
| 1787948795 | 12.78° C | 44% | 1020.7 hPa | - | - | - | - |
| 1787947895 | 13.33° C | 39% | 1020.1 hPa | - | - | - | - |
| 1787946995 | 13.33° C | 37% | 1019.8 hPa | - | - | - | - |
| 1787946095 | 13.33° C | 37% | 1019.6 hPa | - | - | - | - |
| 1787945195 | 13.89° C | 33% | 1019.2 hPa | - | - | - | - |
| 1787944295 | 13.89° C | 30% | 1018.8 hPa | - | - | - | - |
| 1787943395 | 14.44° C | 28% | 1018.2 hPa | - | - | - | - |
| 1787941809 | 16.11° C | 26% | 1017 hPa | - | - | - | - |
| 1787940916 | 16.67° C | 24% | 1016.2 hPa | - | - | - | - |
| 1787940004 | 17.78° C | 23% | 1015.6 hPa | - | - | - | - |
| 1787939103 | 17.78° C | 23% | 1015.7 hPa | - | - | - | - |
| 1787938192 | 18.33° C | 22% | 1015.3 hPa | - | - | - | - |
| 1787937277 | 18.89° C | 21% | 1015 hPa | - | - | - | - |
| 1787936377 | 19.44° C | 20% | 1014.3 hPa | - | - | - | - |
| 1787935470 | 19.44° C | 21% | 1014.4 hPa | - | - | - | - |
| 1787934577 | 20° C | 20% | 1013.9 hPa | - | - | - | - |
| 1787933670 | 19.44° C | 20% | 1014.3 hPa | - | - | - | - |
| 1787932777 | 20° C | 20% | 1013.9 hPa | - | - | - | - |
| 1787931870 | 20.56° C | 21% | 1013.7 hPa | - | - | - | - |
| 1787930973 | 20° C | 20% | 1014 hPa | - | - | - | - |
* Rain since midnight (hover to see other rain measurements)
** Current wind speed in m/s (hover to see current wind gust speed)